Time;durP1;ratioP1;P1;durP2;ratioP2;P2;SDS_P1;SDS_P2;PMS_P1;PMS_P2;Temp;Humidity;BMP_temperature;BMP_pressure;BME280_temperature;BME280_humidity;BME280_pressure;Samples;Min_cycle;Max_cycle;Signal;HPM_P1;HPM_P2
2022/11/08 00:01:57;;;;;;;15.98;11.98;;;;;;;8.98;67.84;99436.13;4949585;29;20103;-74
2022/11/08 00:04:25;;;;;;;12.65;9.60;;;;;;;8.85;68.04;99414.69;4949694;29;20040;-74
2022/11/08 00:15:07;;;;;;;14.50;9.70;;;;;;;8.93;68.10;99438.97;4949332;29;20055;-74
2022/11/08 00:17:33;;;;;;;12.70;9.43;;;;;;;8.96;68.14;99435.31;4949016;29;20039;-74
2022/11/08 00:20:02;;;;;;;11.45;8.40;;;;;;;8.95;68.06;99447.69;4948908;29;20328;-74
2022/11/08 00:22:31;;;;;;;12.48;8.80;;;;;;;8.93;68.07;99441.63;4949406;29;20302;-74
2022/11/08 00:24:58;;;;;;;10.40;8.95;;;;;;;8.93;68.21;99446.03;4949048;29;20048;-74
2022/11/08 00:28:16;;;;;;;11.57;9.63;;;;;;;8.93;69.13;99453.97;4949632;29;20175;-74
2022/11/08 00:30:42;;;;;;;10.20;8.00;;;;;;;8.88;68.22;99454.19;4948960;29;20056;-74
2022/11/08 00:33:09;;;;;;;10.07;8.10;;;;;;;8.80;68.39;99440.47;4949193;29;20048;-74
2022/11/08 00:35:37;;;;;;;12.45;8.10;;;;;;;8.83;68.59;99445.63;4948694;29;20266;-74
2022/11/08 00:38:04;;;;;;;9.63;7.00;;;;;;;8.84;68.46;99446.47;4948932;29;20057;-74
2022/11/08 00:40:31;;;;;;;10.93;7.88;;;;;;;8.84;68.65;99449.13;4948783;29;20050;-74
2022/11/08 00:42:57;;;;;;;10.50;8.18;;;;;;;8.83;68.55;99452.69;4948811;29;20043;-74
2022/11/08 00:45:24;;;;;;;11.48;8.80;;;;;;;8.79;68.98;99449.34;4948725;29;20048;-74
2022/11/08 00:47:51;;;;;;;10.68;8.32;;;;;;;8.78;68.82;99458.19;4948461;29;20040;-74
2022/11/08 00:50:17;;;;;;;11.82;8.75;;;;;;;8.65;68.77;99428.84;4947618;29;20043;-74
2022/11/08 00:52:46;;;;;;;11.25;9.05;;;;;;;8.78;68.92;99441.47;4947590;29;20043;-74
2022/11/08 00:55:12;;;;;;;10.63;8.68;;;;;;;8.75;68.88;99455.69;4948625;29;20051;-74
2022/11/08 00:57:39;;;;;;;13.02;10.18;;;;;;;7.97;68.96;99327.22;4948568;29;20071;-74
2022/11/08 01:00:07;;;;;;;12.18;9.13;;;;;;;8.71;69.12;99453.25;4948481;29;20079;-74
2022/11/08 01:02:35;;;;;;;11.48;9.07;;;;;;;8.68;69.17;99452.47;4948549;29;20047;-74
2022/11/08 01:05:02;;;;;;;12.80;8.85;;;;;;;8.69;69.17;99450.69;4948727;29;20043;-74
2022/11/08 01:07:28;;;;;;;11.45;9.45;;;;;;;8.71;69.10;99447.97;4948455;29;20067;-74
2022/11/08 01:09:56;;;;;;;11.90;9.43;;;;;;;8.71;69.02;99440.91;4948327;29;20039;-74
2022/11/08 01:12:23;;;;;;;12.38;10.02;;;;;;;8.72;68.98;99444.41;4948135;29;20043;-74
2022/11/08 01:14:50;;;;;;;11.75;9.68;;;;;;;8.71;69.05;99446.19;4947538;29;20044;-74
2022/11/08 01:17:17;;;;;;;13.68;10.00;;;;;;;8.70;69.14;99451.53;4948484;29;20051;-74
2022/11/08 01:19:43;;;;;;;10.55;9.48;;;;;;;8.30;69.16;99382.03;4948168;29;20047;-74
2022/11/08 01:22:11;;;;;;;11.40;9.77;;;;;;;8.67;69.13;99445.47;4948067;29;20060;-74
2022/11/08 01:24:38;;;;;;;9.85;8.18;;;;;;;8.62;69.16;99447.47;4948210;29;20043;-74
2022/11/08 01:27:06;;;;;;;11.80;9.43;;;;;;;8.59;69.33;99437.03;4948288;29;20056;-74
2022/11/08 01:29:33;;;;;;;11.43;9.80;;;;;;;7.86;69.55;99312.78;4947145;29;20063;-74
2022/11/08 01:32:00;;;;;;;13.05;9.57;;;;;;;8.53;69.59;99434.69;4947408;29;20050;-74
2022/11/08 01:34:26;;;;;;;15.60;10.73;;;;;;;8.56;69.26;99434.53;4947939;29;20055;-74
2022/11/08 01:36:53;;;;;;;14.77;10.75;;;;;;;8.55;69.33;99434.59;4948452;29;20056;-74
2022/11/08 01:39:20;;;;;;;14.63;11.00;;;;;;;6.21;69.26;99043.25;4947991;29;20043;-74
2022/11/08 01:41:46;;;;;;;12.88;10.73;;;;;;;8.25;69.66;99386.69;4948390;29;20048;-74
2022/11/08 01:44:17;;;;;;;12.77;9.18;;;;;;;8.43;69.80;99425.47;4947788;29;20215;-74
2022/11/08 01:46:47;;;;;;;11.10;8.70;;;;;;;7.72;69.74;99313.38;4947528;29;20067;-74
2022/11/08 01:49:31;;;;;;;10.10;8.68;;;;;;;8.42;69.91;99426.38;4947803;29;20047;-74
2022/11/08 01:52:11;;;;;;;12.65;9.48;;;;;;;8.34;69.89;99421.44;4948105;29;20172;-74
2022/11/08 01:54:45;;;;;;;13.55;7.63;;;;;;;8.35;69.53;99425.81;4948043;29;20051;-74
2022/11/08 01:57:18;;;;;;;9.45;7.03;;;;;;;8.31;69.32;99424.22;4947976;29;20055;-74
2022/11/08 01:59:50;;;;;;;10.20;6.85;;;;;;;8.28;69.28;99426.16;4946875;29;20044;-74
2022/11/08 02:02:18;;;;;;;8.85;5.85;;;;;;;8.24;69.09;99429.84;4946913;29;20047;-74
2022/11/08 02:04:45;;;;;;;9.52;6.28;;;;;;;8.20;69.05;99433.56;4947930;29;20043;-74
2022/11/08 02:07:13;;;;;;;9.32;6.38;;;;;;;8.16;69.23;99424.91;4947676;29;20048;-74
2022/11/08 02:09:43;;;;;;;7.53;5.60;;;;;;;8.07;69.30;99412.13;4948193;29;20091;-74
2022/11/08 02:12:12;;;;;;;11.02;6.43;;;;;;;8.05;69.24;99413.97;4947919;29;20056;-74
2022/11/08 02:14:39;;;;;;;7.78;6.57;;;;;;;7.62;69.21;99363.06;4947625;29;20040;-75
2022/11/08 02:17:08;;;;;;;7.43;5.35;;;;;;;7.77;69.22;99374.72;4947565;29;20303;-74
2022/11/08 02:19:39;;;;;;;6.75;5.72;;;;;;;7.95;69.26;99408.22;4947301;29;20055;-74
2022/11/08 02:22:13;;;;;;;7.80;5.88;;;;;;;7.93;69.40;99406.59;4947842;29;20298;-73
2022/11/08 02:24:41;;;;;;;10.90;6.90;;;;;;;7.88;69.56;99401.50;4947482;29;20051;-74
2022/11/08 02:27:09;;;;;;;7.65;6.20;;;;;;;7.84;69.75;99402.56;4947522;29;20058;-74
2022/11/08 02:29:36;;;;;;;9.57;6.40;;;;;;;7.81;69.90;99402.69;4949380;29;20075;-74
2022/11/08 02:32:04;;;;;;;10.27;6.32;;;;;;;7.85;69.77;99400.78;4950239;29;20048;-74
2022/11/08 02:34:34;;;;;;;8.65;7.03;;;;;;;6.91;69.47;99243.03;4950883;29;20146;-75
2022/11/08 02:37:01;;;;;;;8.27;6.28;;;;;;;7.31;69.60;99312.50;4951140;29;20273;-75
2022/11/08 02:39:28;;;;;;;8.63;6.05;;;;;;;7.90;69.47;99412.84;4950827;29;20299;-75
2022/11/08 02:41:57;;;;;;;9.85;6.85;;;;;;;7.89;69.52;99403.22;4950924;29;20074;-75
2022/11/08 02:44:23;;;;;;;9.00;6.72;;;;;;;7.91;69.58;99400.50;4950973;29;20362;-75
2022/11/08 02:46:50;;;;;;;8.98;7.00;;;;;;;7.90;69.43;99396.16;4949875;29;20322;-75
2022/11/08 02:49:17;;;;;;;10.18;8.05;;;;;;;7.88;69.67;99390.94;4950914;29;20048;-75
2022/11/08 02:51:43;;;;;;;10.25;7.30;;;;;;;7.89;69.67;99382.09;4950844;29;20087;-74
2022/11/08 02:54:10;;;;;;;8.38;6.65;;;;;;;7.89;69.61;99387.38;4951132;29;20107;-75
2022/11/08 02:56:37;;;;;;;9.85;7.65;;;;;;;7.86;69.62;99382.25;4950530;29;20284;-75
2022/11/08 02:59:06;;;;;;;9.10;6.65;;;;;;;7.81;70.01;99386.00;4950986;29;20043;-74
2022/11/08 03:01:32;;;;;;;9.32;5.82;;;;;;;7.78;70.08;99384.34;4949070;29;20047;-75
2022/11/08 03:04:00;;;;;;;9.18;6.40;;;;;;;6.58;69.99;99194.38;4950654;29;20291;-75
2022/11/08 03:06:26;;;;;;;8.50;6.25;;;;;;;7.73;70.13;99394.25;4950305;29;20047;-75
2022/11/08 03:08:53;;;;;;;8.10;6.07;;;;;;;7.74;69.91;99390.69;4949464;29;20055;-75
2022/11/08 03:11:20;;;;;;;8.32;6.22;;;;;;;7.70;70.19;99389.09;4950553;29;20044;-76
2022/11/08 03:13:46;;;;;;;7.80;5.82;;;;;;;7.70;70.16;99383.81;4949392;29;20051;-75
2022/11/08 03:16:14;;;;;;;9.15;6.65;;;;;;;7.73;70.03;99390.75;4950721;29;20239;-76
2022/11/08 03:18:42;;;;;;;8.43;6.18;;;;;;;7.68;70.02;99391.81;4950086;29;20044;-75
2022/11/08 03:21:09;;;;;;;9.75;6.70;;;;;;;7.71;69.92;99398.72;4949989;29;20083;-76
2022/11/08 03:23:36;;;;;;;8.70;5.80;;;;;;;7.69;69.95;99396.16;4949193;29;20292;-75
2022/11/08 03:26:03;;;;;;;6.00;5.30;;;;;;;7.70;69.93;99394.38;4950456;29;20048;-75
2022/11/08 03:28:30;;;;;;;8.32;6.43;;;;;;;7.67;69.77;99394.50;4950203;29;20047;-75
2022/11/08 03:30:56;;;;;;;7.47;5.90;;;;;;;7.64;70.00;99384.94;4949101;29;20048;-75
2022/11/08 03:33:25;;;;;;;9.57;6.70;;;;;;;7.62;70.07;99391.22;4949012;29;20087;-76
2022/11/08 03:35:53;;;;;;;9.27;6.97;;;;;;;7.63;70.14;99380.59;4950364;29;20047;-75
2022/11/08 03:38:20;;;;;;;8.15;6.25;;;;;;;7.62;70.21;99392.06;4950048;29;20252;-75
2022/11/08 03:40:47;;;;;;;8.30;6.35;;;;;;;7.61;70.21;99392.13;4950222;29;20063;-76
2022/11/08 03:43:14;;;;;;;9.38;6.35;;;;;;;7.59;70.10;99389.56;4948781;29;20051;-75
2022/11/08 03:45:40;;;;;;;9.65;6.85;;;;;;;7.53;70.20;99378.41;4949777;29;20044;-74
2022/11/08 03:48:07;;;;;;;8.40;7.43;;;;;;;7.57;70.26;99387.91;4949535;29;20048;-74
2022/11/08 03:50:35;;;;;;;10.98;8.05;;;;;;;7.55;70.31;99390.63;4949491;29;20050;-74
2022/11/08 03:53:02;;;;;;;9.32;6.75;;;;;;;7.56;70.37;99388.84;4948638;29;20056;-74
2022/11/08 03:55:30;;;;;;;9.77;8.05;;;;;;;7.57;70.23;99404.59;4949401;29;20043;-75
2022/11/08 03:57:57;;;;;;;10.45;9.35;;;;;;;7.59;70.34;99393.97;4949783;29;20067;-74
2022/11/08 04:00:26;;;;;;;11.13;8.23;;;;;;;7.60;70.63;99393.06;4949430;29;20102;-74
2022/11/08 04:02:55;;;;;;;11.93;9.38;;;;;;;7.60;70.63;99393.91;4948788;29;20039;-73
2022/11/08 04:05:21;;;;;;;12.10;9.68;;;;;;;7.58;70.68;99387.00;4949174;29;20043;-75
2022/11/08 04:07:49;;;;;;;12.63;9.23;;;;;;;7.56;70.95;99391.47;4949222;29;20083;-75
2022/11/08 04:10:17;;;;;;;12.35;9.82;;;;;;;7.55;70.75;99395.88;4949679;29;20047;-76
2022/11/08 04:15:31;;;;;;;14.13;9.40;;;;;;;7.53;71.00;99407.44;4948467;29;20302;-76
2022/11/08 04:23:31;;;;;;;9.95;8.52;;;;;;;7.51;71.07;99391.66;4948981;29;20063;-76
2022/11/08 04:25:59;;;;;;;12.05;9.40;;;;;;;7.52;71.03;99389.88;4949161;29;20044;-75
2022/11/08 04:28:27;;;;;;;12.38;9.73;;;;;;;7.52;70.98;99381.97;4949025;29;20044;-75
2022/11/08 04:30:55;;;;;;;13.95;11.10;;;;;;;7.51;70.96;99389.03;4948194;29;20052;-76
2022/11/08 04:33:23;;;;;;;12.07;9.70;;;;;;;7.44;71.10;99371.75;4947903;29;20044;-75
2022/11/08 04:35:50;;;;;;;10.68;9.07;;;;;;;7.07;71.34;99322.31;4948962;29;20047;-75
2022/11/08 04:38:18;;;;;;;11.27;9.15;;;;;;;7.47;71.19;99374.25;4948928;29;20247;-75
2022/11/08 04:40:46;;;;;;;10.48;8.55;;;;;;;7.45;71.14;99378.75;4948855;29;20051;-73
2022/11/08 04:43:13;;;;;;;11.60;8.95;;;;;;;7.28;71.29;99353.03;4948590;29;20043;-74
2022/11/08 04:45:40;;;;;;;13.50;9.52;;;;;;;7.45;71.24;99380.53;4948497;29;20044;-74
2022/11/08 04:48:07;;;;;;;18.65;12.77;;;;;;;7.43;71.53;99377.94;4948790;29;20044;-75
2022/11/08 04:50:35;;;;;;;18.42;14.18;;;;;;;7.43;71.74;99382.38;4948439;29;20047;-75
2022/11/08 04:53:02;;;;;;;20.88;15.95;;;;;;;7.40;72.02;99375.44;4947155;29;20047;-75
2022/11/08 04:55:28;;;;;;;19.52;15.65;;;;;;;7.32;72.30;99373.09;4948418;29;20180;-75
2022/11/08 04:57:59;;;;;;;22.00;15.80;;;;;;;7.31;72.92;99381.06;4948389;29;20039;-75
2022/11/08 05:00:26;;;;;;;26.65;19.27;;;;;;;7.27;72.74;99380.34;4948554;29;20055;-75
2022/11/08 05:02:54;;;;;;;27.58;17.90;;;;;;;7.17;73.04;99379.00;4947474;29;20039;-75
2022/11/08 05:05:21;;;;;;;23.98;17.88;;;;;;;7.07;73.39;99373.25;4948462;29;20043;-75
2022/11/08 05:07:47;;;;;;;21.05;17.13;;;;;;;6.99;73.89;99372.69;4947391;29;20102;-75
2022/11/08 05:10:14;;;;;;;19.02;14.32;;;;;;;6.73;74.30;99351.75;4948159;29;20044;-75
2022/11/08 05:12:41;;;;;;;18.67;14.52;;;;;;;6.77;74.72;99377.06;4948417;29;20044;-75
2022/11/08 05:15:11;;;;;;;18.25;14.23;;;;;;;6.69;75.35;99382.63;4947280;29;20054;-75
2022/11/08 05:17:38;;;;;;;20.40;15.70;;;;;;;6.65;75.54;99381.03;4948394;29;20095;-75
2022/11/08 05:25:38;;;;;;;15.80;13.75;;;;;;;6.78;75.00;99381.41;4948257;29;20067;-74
2022/11/08 05:28:05;;;;;;;18.25;14.00;;;;;;;6.77;74.61;99376.22;4947935;29;20043;-75
2022/11/08 05:30:33;;;;;;;16.25;12.55;;;;;;;6.76;74.46;99372.72;4948491;29;20040;-75
2022/11/08 05:33:00;;;;;;;15.70;12.25;;;;;;;6.79;74.22;99380.50;4947929;29;20059;-75
2022/11/08 05:35:27;;;;;;;23.30;13.00;;;;;;;6.79;74.28;99385.75;4947088;29;20099;-75
2022/11/08 05:37:53;;;;;;;20.88;13.25;;;;;;;6.78;74.15;99381.41;4948646;29;20172;-75
2022/11/08 05:40:20;;;;;;;16.75;12.45;;;;;;;6.74;74.39;99380.69;4947758;29;20090;-75
2022/11/08 05:42:47;;;;;;;18.35;14.40;;;;;;;6.68;74.74;99385.31;4948046;29;20047;-75
2022/11/08 05:45:14;;;;;;;19.35;15.13;;;;;;;6.65;74.81;99386.31;4946852;29;20090;-75
2022/11/08 05:47:45;;;;;;;18.73;13.68;;;;;;;6.63;75.27;99388.13;4947018;29;20091;-75
2022/11/08 05:50:12;;;;;;;16.60;13.02;;;;;;;6.65;74.87;99385.44;4948124;29;20055;-75
2022/11/08 05:52:39;;;;;;;18.40;14.32;;;;;;;6.62;74.99;99393.47;4948085;29;20075;-75
2022/11/08 05:55:07;;;;;;;17.13;13.07;;;;;;;6.60;75.16;99390.03;4947806;29;20091;-75
2022/11/08 05:57:33;;;;;;;19.58;13.27;;;;;;;6.60;74.97;99385.63;4947860;29;20051;-75
2022/11/08 06:00:00;;;;;;;16.88;12.18;;;;;;;6.35;75.20;99350.63;4947628;29;20231;-75
2022/11/08 06:02:28;;;;;;;15.88;11.88;;;;;;;6.53;75.20;99384.13;4948250;29;20091;-75
2022/11/08 06:04:56;;;;;;;16.95;12.93;;;;;;;6.50;75.38;99396.56;4949096;29;20330;-75
2022/11/08 06:07:23;;;;;;;16.23;13.25;;;;;;;5.76;75.46;99280.03;4951819;29;20291;-75
2022/11/08 06:09:49;;;;;;;15.57;12.45;;;;;;;6.47;75.49;99396.69;4951295;29;20048;-75
2022/11/08 06:12:16;;;;;;;17.63;14.00;;;;;;;6.46;75.56;99403.72;4951774;29;20066;-75
2022/11/08 06:14:43;;;;;;;15.68;11.93;;;;;;;6.28;75.49;99380.72;4951792;29;20196;-75
2022/11/08 06:17:10;;;;;;;15.82;13.20;;;;;;;6.45;75.50;99409.91;4951741;29;20044;-75
2022/11/08 06:19:36;;;;;;;23.70;13.35;;;;;;;6.42;75.62;99412.66;4950196;29;20058;-75
2022/11/08 06:22:04;;;;;;;18.38;14.10;;;;;;;3.98;75.78;99006.22;4951911;29;20200;-75
2022/11/08 06:24:31;;;;;;;19.10;14.23;;;;;;;6.40;75.75;99417.13;4951550;29;20047;-75
2022/11/08 06:26:58;;;;;;;18.58;13.50;;;;;;;6.41;75.82;99426.72;4951522;29;20251;-75
2022/11/08 06:29:25;;;;;;;18.75;15.25;;;;;;;6.45;75.92;99419.56;4950904;29;20108;-75
2022/11/08 06:31:51;;;;;;;17.45;13.05;;;;;;;6.46;75.82;99419.53;4951137;29;20047;-75
2022/11/08 06:34:18;;;;;;;20.75;14.38;;;;;;;6.42;75.87;99426.66;4951387;29;20247;-75
2022/11/08 06:36:45;;;;;;;18.60;12.63;;;;;;;6.45;75.97;99430.09;4950849;29;20298;-75
2022/11/08 06:39:13;;;;;;;21.13;15.50;;;;;;;6.10;76.30;99383.13;4950815;29;20043;-75
2022/11/08 06:41:40;;;;;;;25.83;14.27;;;;;;;6.31;76.54;99431.47;4949891;29;20091;-75
2022/11/08 06:44:07;;;;;;;18.30;13.55;;;;;;;6.31;76.72;99430.63;4950620;29;20307;-75
2022/11/08 06:46:33;;;;;;;20.48;14.25;;;;;;;6.34;76.64;99483.16;4950518;29;20048;-76
2022/11/08 06:49:00;;;;;;;20.55;14.77;;;;;;;6.38;76.62;99422.44;4950632;29;20047;-75
2022/11/08 06:51:27;;;;;;;18.98;14.18;;;;;;;6.40;76.58;99425.00;4951078;29;20044;-75
2022/11/08 06:53:53;;;;;;;20.95;14.80;;;;;;;6.38;76.48;99430.34;4950760;29;20091;-75
2022/11/08 06:56:22;;;;;;;21.30;16.42;;;;;;;6.36;76.75;99426.03;4950751;29;20052;-75
2022/11/08 06:58:50;;;;;;;19.63;15.90;;;;;;;6.38;76.68;99426.84;4950682;29;20047;-75
2022/11/08 07:01:17;;;;;;;22.95;14.95;;;;;;;6.41;76.38;99429.34;4949395;29;20067;-75
2022/11/08 07:03:44;;;;;;;19.50;13.98;;;;;;;6.45;76.33;99428.34;4949752;29;20047;-75
2022/11/08 07:06:11;;;;;;;24.52;15.43;;;;;;;6.49;76.14;99431.72;4949425;29;20039;-75
2022/11/08 07:08:37;;;;;;;22.77;17.42;;;;;;;6.13;76.04;99365.50;4950221;29;20087;-75
2022/11/08 07:11:05;;;;;;;22.02;14.27;;;;;;;6.51;76.24;99417.56;4949314;29;20039;-75
2022/11/08 07:13:33;;;;;;;19.90;15.05;;;;;;;6.47;76.16;99418.59;4950510;29;20126;-75
2022/11/08 07:16:00;;;;;;;24.67;16.30;;;;;;;6.29;76.28;99382.44;4949987;29;20111;-75
2022/11/08 07:18:28;;;;;;;22.77;16.45;;;;;;;6.50;76.50;99431.66;4950061;29;20056;-75
2022/11/08 07:20:58;;;;;;;21.52;16.17;;;;;;;6.48;76.74;99417.69;4949945;29;20063;-75
2022/11/08 07:23:25;;;;;;;19.45;14.98;;;;;;;6.49;76.67;99419.41;4950188;29;20043;-75
2022/11/08 07:25:52;;;;;;;25.42;17.73;;;;;;;6.48;76.96;99411.56;4950112;29;20056;-75
2022/11/08 07:28:19;;;;;;;25.83;18.65;;;;;;;6.45;77.25;99416.94;4949924;29;20338;-75
2022/11/08 07:30:49;;;;;;;28.45;19.33;;;;;;;6.43;77.70;99414.38;4948747;29;20043;-75
2022/11/08 07:33:16;;;;;;;28.63;19.33;;;;;;;6.48;77.44;99415.06;4949904;29;20043;-75
2022/11/08 07:35:46;;;;;;;25.20;18.55;;;;;;;5.78;77.49;99307.16;4949968;29;20291;-75
2022/11/08 07:38:13;;;;;;;27.25;19.58;;;;;;;6.35;77.72;99406.75;4949368;29;20040;-75
2022/11/08 07:40:40;;;;;;;32.20;19.90;;;;;;;6.49;78.12;99426.44;4949988;29;20055;-75
2022/11/08 07:43:07;;;;;;;25.13;18.52;;;;;;;5.67;78.28;99304.91;4949905;29;20219;-75
2022/11/08 07:45:33;;;;;;;25.77;17.60;;;;;;;6.48;78.23;99427.34;4949690;29;20287;-75
2022/11/08 07:48:03;;;;;;;27.70;19.63;;;;;;;6.53;78.00;99428.03;4949695;29;20048;-74
2022/11/08 07:50:30;;;;;;;26.27;19.90;;;;;;;6.25;78.15;99386.97;4949830;29;20094;-74
2022/11/08 07:52:57;;;;;;;22.58;17.42;;;;;;;6.52;78.36;99429.81;4949621;29;20052;-75
2022/11/08 07:55:24;;;;;;;26.73;19.75;;;;;;;6.52;78.30;99428.97;4949544;29;20052;-74
2022/11/08 07:57:55;;;;;;;25.67;18.33;;;;;;;6.54;78.30;99420.09;4949625;29;20043;-75
2022/11/08 08:00:22;;;;;;;26.73;18.98;;;;;;;6.57;78.42;99417.34;4949497;29;20048;-75
2022/11/08 08:02:49;;;;;;;25.25;18.25;;;;;;;6.58;78.37;99426.09;4948979;29;20047;-75
2022/11/08 08:05:17;;;;;;;23.45;18.67;;;;;;;6.28;78.38;99376.31;4949162;29;20048;-75
2022/11/08 08:07:44;;;;;;;29.77;20.05;;;;;;;6.56;78.69;99420.88;4949280;29;20048;-75
2022/11/08 08:10:10;;;;;;;27.58;19.30;;;;;;;6.56;78.92;99422.66;4949247;29;20048;-75
2022/11/08 08:12:37;;;;;;;26.35;19.48;;;;;;;6.60;78.85;99426.91;4948507;29;20087;-75
2022/11/08 08:15:05;;;;;;;27.77;19.02;;;;;;;6.61;78.86;99431.25;4948384;29;20091;-75
2022/11/08 08:17:32;;;;;;;26.55;19.65;;;;;;;6.64;78.70;99437.25;4948948;29;20083;-75
2022/11/08 08:19:59;;;;;;;28.92;20.38;;;;;;;6.67;78.70;99431.88;4948882;29;20067;-75
2022/11/08 08:22:27;;;;;;;30.08;20.80;;;;;;;6.69;78.74;99432.69;4948644;29;20203;-75
2022/11/08 08:24:53;;;;;;;27.98;19.27;;;;;;;6.68;78.78;99430.09;4948740;29;20057;-75
2022/11/08 08:27:20;;;;;;;24.80;17.35;;;;;;;6.69;78.72;99431.81;4948545;29;20043;-75
2022/11/08 08:29:47;;;;;;;28.80;19.48;;;;;;;6.67;79.14;99425.75;4949231;29;20047;-75
2022/11/08 08:32:14;;;;;;;26.55;18.45;;;;;;;6.61;79.53;99421.56;4947891;29;20050;-75
2022/11/08 08:34:40;;;;;;;28.90;21.10;;;;;;;6.61;79.61;99421.56;4948948;29;20295;-75
2022/11/08 08:37:07;;;;;;;27.15;20.02;;;;;;;6.63;79.61;99424.16;4948214;29;20098;-75
2022/11/08 08:39:35;;;;;;;28.27;19.15;;;;;;;6.68;79.36;99420.41;4948882;29;20051;-75
2022/11/08 08:42:02;;;;;;;25.40;19.48;;;;;;;6.39;79.43;99362.75;4948915;29;20297;-75
2022/11/08 08:44:29;;;;;;;29.95;21.42;;;;;;;6.69;79.35;99405.47;4949004;29;20047;-75
2022/11/08 08:46:55;;;;;;;30.00;21.40;;;;;;;6.71;79.42;99416.81;4948525;29;20056;-75
2022/11/08 08:49:22;;;;;;;27.17;19.52;;;;;;;6.73;79.35;99420.25;4948386;29;20044;-75
2022/11/08 08:51:49;;;;;;;26.92;19.70;;;;;;;6.61;79.55;99395.25;4948460;29;20095;-75
2022/11/08 08:54:15;;;;;;;29.30;20.83;;;;;;;6.75;79.53;99421.91;4947344;29;20052;-76
2022/11/08 08:56:44;;;;;;;28.30;19.02;;;;;;;6.61;79.81;99402.28;4948209;29;20039;-75
2022/11/08 08:59:10;;;;;;;25.83;19.63;;;;;;;6.77;79.43;99421.84;4947513;29;20231;-75
2022/11/08 09:01:37;;;;;;;27.63;17.80;;;;;;;6.80;79.33;99424.41;4948238;29;20295;-75
2022/11/08 09:04:04;;;;;;;26.45;19.52;;;;;;;6.78;79.18;99420.94;4947289;29;20083;-75
2022/11/08 09:06:31;;;;;;;25.00;18.45;;;;;;;6.79;79.41;99433.19;4948485;29;20047;-75
2022/11/08 09:08:58;;;;;;;26.55;17.52;;;;;;;6.79;79.30;99427.06;4948067;29;20314;-75
2022/11/08 09:11:25;;;;;;;31.60;19.95;;;;;;;6.74;79.45;99427.22;4948196;29;20048;-75
2022/11/08 09:13:53;;;;;;;29.23;18.92;;;;;;;6.65;79.70;99425.81;4948079;29;20251;-75
2022/11/08 09:16:20;;;;;;;29.02;20.50;;;;;;;6.60;80.04;99424.25;4948048;29;20055;-75
2022/11/08 09:18:47;;;;;;;25.45;18.30;;;;;;;6.59;80.37;99430.44;4948569;29;20047;-75
2022/11/08 09:21:13;;;;;;;29.98;20.10;;;;;;;6.02;80.37;99326.44;4947628;29;20067;-75
2022/11/08 09:23:41;;;;;;;29.38;20.13;;;;;;;6.59;80.59;99431.31;4947009;29;20099;-75
2022/11/08 09:26:08;;;;;;;26.85;19.77;;;;;;;6.45;80.83;99417.81;4947250;29;20118;-75
2022/11/08 09:28:36;;;;;;;28.45;19.40;;;;;;;6.59;80.75;99430.44;4946918;29;20203;-75
2022/11/08 09:31:06;;;;;;;25.33;19.73;;;;;;;6.63;80.83;99432.06;4948310;29;20052;-75
2022/11/08 09:33:33;;;;;;;24.30;17.80;;;;;;;6.67;80.46;99433.66;4948087;29;20044;-75
2022/11/08 09:36:00;;;;;;;28.17;19.48;;;;;;;6.70;80.17;99425.63;4947992;29;20218;-75
2022/11/08 09:38:27;;;;;;;25.67;18.90;;;;;;;6.68;80.23;99430.09;4949345;29;20087;-75
2022/11/08 09:41:12;;;;;;;26.17;17.80;;;;;;;6.27;80.76;99358.81;4950945;29;20067;-75
2022/11/08 09:43:52;;;;;;;24.08;17.00;;;;;;;6.67;80.99;99426.59;4950758;29;20043;-75
2022/11/08 09:46:29;;;;;;;26.52;18.52;;;;;;;6.55;80.85;99403.38;4952278;29;20054;-75
2022/11/08 09:49:00;;;;;;;26.40;19.55;;;;;;;6.76;80.16;99435.94;4951690;29;20055;-75
2022/11/08 09:51:30;;;;;;;26.27;19.98;;;;;;;5.79;79.83;99266.78;4950950;29;20243;-75
2022/11/08 09:53:59;;;;;;;25.17;18.58;;;;;;;6.67;80.25;99431.00;4950737;29;20311;-75
2022/11/08 09:56:30;;;;;;;23.13;16.83;;;;;;;6.28;80.23;99362.28;4951796;29;20051;-75
2022/11/08 09:59:05;;;;;;;29.13;20.30;;;;;;;6.67;80.28;99412.59;4951527;29;20095;-75
2022/11/08 10:01:36;;;;;;;28.88;19.50;;;;;;;6.70;80.19;99412.47;4951955;29;20047;-75
2022/11/08 10:04:06;;;;;;;27.45;19.48;;;;;;;6.72;80.04;99414.13;4951967;29;20206;-75
2022/11/08 10:06:52;;;;;;;26.77;19.05;;;;;;;5.99;80.28;99285.31;4950618;29;20048;-74
2022/11/08 10:09:31;;;;;;;27.73;19.52;;;;;;;6.77;80.27;99415.72;4951608;29;20052;-75
2022/11/08 10:12:08;;;;;;;28.77;19.10;;;;;;;6.73;80.45;99415.84;4950642;29;20077;-75
2022/11/08 10:14:50;;;;;;;32.88;21.58;;;;;;;6.61;80.64;99392.59;4950260;29;20326;-75
2022/11/08 10:17:34;;;;;;;26.67;18.58;;;;;;;6.75;80.79;99399.97;4951114;29;20090;-75
2022/11/08 10:20:11;;;;;;;28.77;20.50;;;;;;;6.75;80.40;99402.59;4951254;29;20262;-75
2022/11/08 10:22:46;;;;;;;28.30;19.52;;;;;;;6.78;80.30;99406.91;4951472;29;20107;-75
2022/11/08 10:25:20;;;;;;;30.58;21.50;;;;;;;6.76;80.48;99404.31;4951318;29;20055;-75
2022/11/08 10:27:47;;;;;;;28.27;20.40;;;;;;;6.73;80.34;99404.44;4951452;29;20047;-75
2022/11/08 10:30:18;;;;;;;28.50;21.33;;;;;;;6.74;80.66;99401.75;4950889;29;20048;-75
2022/11/08 10:32:50;;;;;;;28.63;21.70;;;;;;;6.77;80.38;99399.91;4950072;29;20211;-75
2022/11/08 10:35:22;;;;;;;28.85;19.98;;;;;;;6.74;80.15;99393.00;4950976;29;20056;-75
2022/11/08 10:37:52;;;;;;;40.67;23.63;;;;;;;6.72;80.37;99392.19;4950971;29;20068;-75
2022/11/08 10:40:29;;;;;;;29.63;20.55;;;;;;;6.73;80.50;99392.13;4950672;29;20059;-74
2022/11/08 10:43:02;;;;;;;27.85;18.70;;;;;;;6.72;80.40;99385.16;4950640;29;20043;-75
2022/11/08 10:45:28;;;;;;;27.35;20.88;;;;;;;6.71;80.31;99386.06;4950547;29;20047;-75
2022/11/08 10:47:57;;;;;;;30.55;24.85;;;;;;;6.72;80.37;99385.16;4950560;29;20044;-75
2022/11/08 10:50:37;;;;;;;30.45;22.00;;;;;;;6.67;81.16;99379.19;4950348;29;20314;-75
2022/11/08 10:53:04;;;;;;;34.13;22.30;;;;;;;6.63;80.88;99382.88;4950559;29;20054;-75
2022/11/08 10:55:37;;;;;;;30.63;20.20;;;;;;;6.60;81.06;99387.41;4950633;29;20092;-75
2022/11/08 10:58:04;;;;;;;29.40;21.35;;;;;;;6.59;81.25;99385.69;4950549;29;20035;-75
2022/11/08 11:00:32;;;;;;;29.35;20.33;;;;;;;6.63;80.99;99387.28;4950128;29;20055;-75
2022/11/08 11:03:16;;;;;;;29.10;20.55;;;;;;;6.49;81.01;99360.63;4949408;29;20043;-75
2022/11/08 11:05:57;;;;;;;27.33;19.58;;;;;;;6.25;81.73;99318.53;4949388;29;20055;-75
2022/11/08 11:08:24;;;;;;;28.83;18.98;;;;;;;6.67;81.01;99373.06;4949469;29;20218;-75
2022/11/08 11:10:51;;;;;;;25.52;19.25;;;;;;;6.42;80.68;99325.78;4950303;29;20299;-74
2022/11/08 11:13:21;;;;;;;25.50;18.63;;;;;;;6.03;80.57;99265.00;4949957;29;20039;-74
2022/11/08 11:15:50;;;;;;;24.63;16.67;;;;;;;6.80;80.54;99371.72;4949347;29;20211;-74
2022/11/08 11:18:24;;;;;;;25.77;18.58;;;;;;;6.78;80.66;99352.44;4949068;29;20087;-75
2022/11/08 11:21:04;;;;;;;26.33;18.93;;;;;;;6.81;81.10;99364.66;4949843;29;20074;-74
2022/11/08 11:23:40;;;;;;;29.98;20.02;;;;;;;6.81;81.02;99359.41;4949059;29;20104;-74
2022/11/08 11:26:15;;;;;;;24.63;18.20;;;;;;;6.81;80.56;99362.03;4949989;29;20047;-75
2022/11/08 11:29:14;;;;;;;25.02;17.58;;;;;;;6.82;81.33;99369.00;4950071;29;20040;-75
2022/11/08 11:31:43;;;;;;;27.05;18.45;;;;;;;6.70;80.67;99339.56;4950187;29;20035;-75
2022/11/08 11:34:39;;;;;;;26.10;17.98;;;;;;;6.90;81.06;99361.66;4949276;29;20047;-74
2022/11/08 11:37:17;;;;;;;25.30;18.77;;;;;;;6.67;80.77;99323.91;4949917;29;20043;-75
2022/11/08 11:39:51;;;;;;;24.63;18.55;;;;;;;6.26;80.23;99251.81;4949323;29;20051;-74
2022/11/08 11:42:24;;;;;;;29.70;18.70;;;;;;;6.96;80.29;99353.50;4948721;29;20194;-74
2022/11/08 11:45:02;;;;;;;26.63;18.30;;;;;;;6.98;80.38;99352.53;4948700;29;20040;-74
2022/11/08 11:47:31;;;;;;;26.00;18.33;;;;;;;6.80;80.31;99376.97;4948326;29;20099;-74
2022/11/08 11:50:15;;;;;;;25.73;17.77;;;;;;;7.02;80.42;99354.13;4949503;29;20203;-75
2022/11/08 11:52:42;;;;;;;23.90;17.25;;;;;;;7.04;80.07;99354.91;4949812;29;20169;-74
2022/11/08 11:55:14;;;;;;;23.27;17.52;;;;;;;7.03;80.21;99350.56;4949308;29;20321;-74
2022/11/08 11:57:55;;;;;;;25.33;19.48;;;;;;;7.01;80.35;99335.75;4949506;29;20051;-74
2022/11/08 12:00:22;;;;;;;27.40;18.17;;;;;;;6.99;80.12;99333.16;4949491;29;20338;-74